Time;durP1;ratioP1;P1;durP2;ratioP2;P2;SDS_P1;SDS_P2;PMS_P1;PMS_P2;Temp;Humidity;BMP_temperature;BMP_pressure;BME280_temperature;BME280_humidity;BME280_pressure;Samples;Min_cycle;Max_cycle;Signal;HPM_P1;HPM_P2
2024/02/03 00:01:04;;;;;;;0.10;0.10;;;;;;;;;;5045992;28;20239;-76
2024/02/03 00:03:31;;;;;;;0.20;0.20;;;;;;;;;;5064509;28;20509;-76
2024/02/03 00:05:57;;;;;;;0.10;0.10;;;;;;;;;;5047192;28;20250;-76
2024/02/03 00:08:24;;;;;;;0.10;0.10;;;;;;;;;;5063998;28;20247;-76
2024/02/03 00:10:53;;;;;;;0.10;0.10;;;;;;;;;;5045356;28;20541;-76
2024/02/03 00:13:20;;;;;;;0.10;0.10;;;;;;;;;;5065134;28;20229;-76
2024/02/03 00:15:47;;;;;;;0.10;0.10;;;;;;;;;;5044394;28;20241;-75
2024/02/03 00:18:14;;;;;;;0.10;0.10;;;;;;;;;;5066507;28;20268;-76
2024/02/03 00:20:41;;;;;;;0.10;0.10;;;;;;;;;;5042736;28;20240;-76
2024/02/03 00:23:08;;;;;;;0.10;0.10;;;;;;;;;;5068078;28;20206;-76
2024/02/03 00:25:34;;;;;;;0.20;0.20;;;;;;;;;;5040795;28;20307;-76
2024/02/03 00:28:01;;;;;;;0.10;0.10;;;;;;;;;;5070121;28;20228;-76
2024/02/03 00:30:28;;;;;;;0.10;0.10;;;;;;;;;;5039025;28;20206;-76
2024/02/03 00:32:54;;;;;;;0.20;0.20;;;;;;;;;;5071578;28;20208;-76
2024/02/03 00:35:22;;;;;;;0.17;0.17;;;;;;;;;;5037054;28;20209;-76
2024/02/03 00:37:48;;;;;;;0.20;0.20;;;;;;;;;;5073115;28;20259;-76
2024/02/03 00:40:15;;;;;;;0.10;0.10;;;;;;;;;;5035599;28;20398;-76
2024/02/03 00:42:42;;;;;;;0.10;0.10;;;;;;;;;;5074829;28;20364;-76
2024/02/03 00:45:09;;;;;;;0.20;0.20;;;;;;;;;;5039005;28;20243;-76
2024/02/03 00:47:36;;;;;;;0.37;0.37;;;;;;;;;;5075764;28;20240;-76
2024/02/03 00:50:02;;;;;;;0.10;0.10;;;;;;;;;;5044098;28;20207;-76
2024/02/03 00:52:30;;;;;;;0.10;0.10;;;;;;;;;;5065798;28;20248;-76
2024/02/03 00:54:56;;;;;;;0.10;0.10;;;;;;;;;;5044397;28;20205;-76
2024/02/03 00:57:23;;;;;;;0.10;0.10;;;;;;;;;;5065578;28;20246;-76
2024/02/03 00:59:49;;;;;;;0.10;0.10;;;;;;;;;;5044259;28;20212;-76
2024/02/03 01:02:15;;;;;;;0.10;0.10;;;;;;;;;;5065776;28;20486;-76
2024/02/03 01:04:42;;;;;;;0.20;0.20;;;;;;;;;;5044215;28;20228;-75
2024/02/03 01:07:09;;;;;;;0.10;0.10;;;;;;;;;;5065374;28;20637;-76
2024/02/03 01:09:36;;;;;;;0.10;0.10;;;;;;;;;;5043678;28;20310;-76
2024/02/03 01:12:03;;;;;;;0.17;0.17;;;;;;;;;;5063887;28;20239;-76
2024/02/03 01:14:33;;;;;;;0.10;0.10;;;;;;;;;;5045265;28;20271;-75
2024/02/03 01:16:59;;;;;;;0.10;0.10;;;;;;;;;;5061973;28;20239;-76
2024/02/03 01:19:26;;;;;;;0.10;0.10;;;;;;;;;;5045821;28;20274;-76
2024/02/03 01:21:52;;;;;;;0.10;0.10;;;;;;;;;;5060829;28;20427;-76
2024/02/03 01:24:19;;;;;;;0.10;0.10;;;;;;;;;;5048175;28;20421;-76
2024/02/03 01:26:47;;;;;;;0.13;0.13;;;;;;;;;;5058904;28;20289;-76
2024/02/03 01:29:13;;;;;;;0.10;0.10;;;;;;;;;;5049739;28;20214;-76
2024/02/03 01:31:40;;;;;;;0.10;0.10;;;;;;;;;;5057369;28;20329;-76
2024/02/03 01:34:06;;;;;;;0.10;0.10;;;;;;;;;;5050821;28;20203;-76
2024/02/03 01:36:34;;;;;;;0.10;0.10;;;;;;;;;;5055539;28;20269;-76
2024/02/03 01:39:00;;;;;;;0.10;0.10;;;;;;;;;;5052788;28;20390;-76
2024/02/03 01:41:27;;;;;;;0.10;0.10;;;;;;;;;;5053982;28;20286;-76
2024/02/03 01:43:55;;;;;;;0.10;0.10;;;;;;;;;;5054757;28;20212;-76
2024/02/03 01:46:22;;;;;;;0.20;0.20;;;;;;;;;;5052725;28;20239;-76
2024/02/03 01:48:48;;;;;;;0.10;0.10;;;;;;;;;;5055882;28;20212;-76
2024/02/03 01:51:16;;;;;;;0.10;0.10;;;;;;;;;;5050824;28;20248;-76
2024/02/03 01:53:43;;;;;;;0.37;0.37;;;;;;;;;;5057475;28;20287;-76
2024/02/03 01:56:10;;;;;;;0.10;0.10;;;;;;;;;;5049102;28;20488;-76
2024/02/03 01:58:36;;;;;;;0.10;0.10;;;;;;;;;;5059001;28;20262;-76
2024/02/03 02:01:04;;;;;;;0.10;0.10;;;;;;;;;;5047381;28;20242;-76
2024/02/03 02:03:31;;;;;;;0.10;0.10;;;;;;;;;;5060599;28;20248;-76
2024/02/03 02:05:57;;;;;;;0.10;0.10;;;;;;;;;;5045901;28;20284;-76
2024/02/03 02:08:31;;;;;;;0.13;0.13;;;;;;;;;;5062076;28;20257;-76
2024/02/03 02:10:58;;;;;;;0.20;0.20;;;;;;;;;;5046025;28;20440;-76
2024/02/03 02:13:25;;;;;;;0.10;0.10;;;;;;;;;;5062178;28;20211;-76
2024/02/03 02:15:51;;;;;;;0.10;0.10;;;;;;;;;;5044396;28;20243;-76
2024/02/03 02:18:19;;;;;;;0.10;0.10;;;;;;;;;;5063887;28;20193;-76
2024/02/03 02:20:47;;;;;;;0.10;0.10;;;;;;;;;;5042494;28;20235;-76
2024/02/03 02:23:14;;;;;;;0.10;0.10;;;;;;;;;;5064845;28;20279;-76
2024/02/03 02:25:40;;;;;;;0.10;0.10;;;;;;;;;;5041218;28;20579;-76
2024/02/03 02:28:07;;;;;;;0.10;0.10;;;;;;;;;;5069395;28;20422;-76
2024/02/03 02:30:33;;;;;;;0.10;0.10;;;;;;;;;;5043178;28;20248;-74
2024/02/03 02:33:00;;;;;;;0.10;0.10;;;;;;;;;;5072130;28;20211;-76
2024/02/03 02:35:26;;;;;;;0.10;0.10;;;;;;;;;;5041170;28;20497;-76
2024/02/03 02:37:54;;;;;;;0.17;0.17;;;;;;;;;;5073748;28;20357;-76
2024/02/03 02:40:21;;;;;;;0.20;0.20;;;;;;;;;;5039297;28;20208;-76
2024/02/03 02:42:47;;;;;;;0.10;0.10;;;;;;;;;;5075252;28;20254;-76
2024/02/03 02:45:13;;;;;;;0.10;0.10;;;;;;;;;;5037157;28;20532;-76
2024/02/03 02:47:40;;;;;;;0.10;0.10;;;;;;;;;;5077057;28;20251;-76
2024/02/03 02:50:07;;;;;;;0.10;0.10;;;;;;;;;;5046391;28;20204;-76
2024/02/03 02:52:33;;;;;;;0.10;0.10;;;;;;;;;;5068018;28;20239;-76
2024/02/03 02:55:01;;;;;;;0.10;0.10;;;;;;;;;;5046341;28;20205;-76
2024/02/03 02:57:27;;;;;;;0.10;0.10;;;;;;;;;;5068036;28;20246;-76
2024/02/03 02:59:54;;;;;;;0.10;0.10;;;;;;;;;;5046161;28;20206;-76
2024/02/03 03:02:20;;;;;;;0.20;0.20;;;;;;;;;;5068122;28;20492;-76
2024/02/03 03:04:47;;;;;;;0.10;0.10;;;;;;;;;;5046209;28;20507;-76
2024/02/03 03:07:14;;;;;;;0.10;0.10;;;;;;;;;;5067651;28;20284;-76
2024/02/03 03:09:41;;;;;;;0.10;0.10;;;;;;;;;;5046447;28;20215;-76
2024/02/03 03:12:09;;;;;;;0.10;0.10;;;;;;;;;;5067376;28;20243;-76
2024/02/03 03:14:35;;;;;;;0.10;0.10;;;;;;;;;;5045812;28;20413;-76
2024/02/03 03:17:02;;;;;;;0.10;0.10;;;;;;;;;;5066173;28;20241;-76
2024/02/03 03:19:28;;;;;;;0.10;0.10;;;;;;;;;;5047466;28;20205;-76
2024/02/03 03:21:55;;;;;;;0.10;0.10;;;;;;;;;;5063648;28;20243;-76
2024/02/03 03:24:21;;;;;;;0.10;0.10;;;;;;;;;;5049820;28;20413;-76
2024/02/03 03:26:47;;;;;;;0.10;0.10;;;;;;;;;;5061580;28;20239;-76
2024/02/03 03:29:15;;;;;;;0.20;0.20;;;;;;;;;;5051363;28;20243;-76
2024/02/03 03:31:41;;;;;;;0.10;0.10;;;;;;;;;;5060013;28;20245;-76
2024/02/03 03:34:08;;;;;;;0.10;0.10;;;;;;;;;;5053016;28;20444;-77
2024/02/03 03:36:34;;;;;;;0.17;0.17;;;;;;;;;;5058055;28;20268;-76
2024/02/03 03:39:00;;;;;;;0.10;0.10;;;;;;;;;;5053228;28;20273;-76
2024/02/03 03:41:27;;;;;;;0.10;0.10;;;;;;;;;;5056054;28;20443;-75
2024/02/03 03:43:53;;;;;;;0.10;0.10;;;;;;;;;;5056762;28;20397;-76
2024/02/03 03:46:21;;;;;;;0.10;0.10;;;;;;;;;;5054048;28;20314;-76
2024/02/03 03:48:47;;;;;;;0.10;0.10;;;;;;;;;;5058287;28;20249;-76
2024/02/03 03:51:14;;;;;;;0.10;0.10;;;;;;;;;;5052393;28;20262;-76
2024/02/03 03:53:40;;;;;;;0.10;0.10;;;;;;;;;;5060131;28;20212;-76
2024/02/03 03:56:07;;;;;;;0.10;0.10;;;;;;;;;;5050450;28;20508;-76
2024/02/03 03:58:33;;;;;;;0.10;0.10;;;;;;;;;;5061685;28;20243;-76
2024/02/03 04:00:59;;;;;;;0.10;0.10;;;;;;;;;;5048712;28;20251;-76
2024/02/03 04:03:27;;;;;;;0.10;0.10;;;;;;;;;;5063513;28;20243;-76
2024/02/03 04:05:53;;;;;;;0.10;0.10;;;;;;;;;;5046556;28;20243;-76
2024/02/03 04:08:20;;;;;;;0.10;0.10;;;;;;;;;;5065166;28;20233;-76
2024/02/03 04:10:52;;;;;;;0.10;0.10;;;;;;;;;;5044362;28;20259;-76
2024/02/03 04:13:18;;;;;;;0.10;0.10;;;;;;;;;;5065601;28;20243;-76
2024/02/03 04:15:45;;;;;;;0.10;0.10;;;;;;;;;;5044291;28;20251;-76
2024/02/03 04:18:11;;;;;;;0.10;0.10;;;;;;;;;;5067138;28;20204;-76
2024/02/03 04:20:39;;;;;;;0.10;0.10;;;;;;;;;;5042097;28;20263;-76
2024/02/03 04:23:05;;;;;;;0.10;0.10;;;;;;;;;;5068885;28;20247;-76
2024/02/03 04:25:32;;;;;;;0.10;0.10;;;;;;;;;;5040555;28;20241;-76
2024/02/03 04:27:57;;;;;;;0.17;0.17;;;;;;;;;;5070435;28;20207;-76
2024/02/03 04:30:24;;;;;;;0.10;0.10;;;;;;;;;;5038521;28;20225;-76
2024/02/03 04:32:50;;;;;;;0.10;0.10;;;;;;;;;;5072383;28;20235;-76
2024/02/03 04:35:16;;;;;;;0.10;0.10;;;;;;;;;;5035918;28;20204;-76
2024/02/03 04:37:44;;;;;;;0.10;0.10;;;;;;;;;;5074550;28;20457;-76
2024/02/03 04:40:11;;;;;;;0.10;0.10;;;;;;;;;;5034333;28;20205;-76
2024/02/03 04:42:38;;;;;;;0.13;0.13;;;;;;;;;;5075669;28;20244;-76
2024/02/03 04:45:04;;;;;;;0.10;0.10;;;;;;;;;;5044171;28;20210;-76
2024/02/03 04:47:31;;;;;;;0.10;0.10;;;;;;;;;;5065891;28;20440;-76
2024/02/03 04:49:57;;;;;;;0.10;0.10;;;;;;;;;;5043925;28;20243;-75
2024/02/03 04:52:24;;;;;;;0.10;0.10;;;;;;;;;;5065884;28;20494;-76
2024/02/03 04:54:52;;;;;;;0.10;0.10;;;;;;;;;;5044090;28;20220;-76
2024/02/03 04:57:18;;;;;;;0.10;0.10;;;;;;;;;;5065727;28;20239;-76
2024/02/03 04:59:45;;;;;;;0.10;0.10;;;;;;;;;;5044232;28;20209;-76
2024/02/03 05:02:11;;;;;;;0.10;0.10;;;;;;;;;;5065727;28;20249;-75
2024/02/03 05:04:37;;;;;;;0.10;0.10;;;;;;;;;;5044210;28;20204;-75
2024/02/03 05:07:04;;;;;;;0.10;0.10;;;;;;;;;;5063820;28;20241;-76
2024/02/03 05:09:30;;;;;;;0.10;0.10;;;;;;;;;;5045454;28;20236;-75
2024/02/03 05:11:58;;;;;;;0.10;0.10;;;;;;;;;;5062208;28;20258;-76
2024/02/03 05:14:25;;;;;;;0.10;0.10;;;;;;;;;;5047204;28;20209;-76
2024/02/03 05:16:51;;;;;;;0.10;0.10;;;;;;;;;;5060736;28;20303;-76
2024/02/03 05:19:18;;;;;;;0.10;0.10;;;;;;;;;;5048130;28;20406;-76
2024/02/03 05:21:45;;;;;;;0.10;0.10;;;;;;;;;;5058961;28;20251;-76
2024/02/03 05:24:11;;;;;;;0.20;0.20;;;;;;;;;;5049838;28;20213;-76
2024/02/03 05:26:38;;;;;;;0.20;0.20;;;;;;;;;;5057001;28;20230;-76
2024/02/03 05:29:05;;;;;;;0.10;0.10;;;;;;;;;;5051827;28;20386;-76
2024/02/03 05:31:32;;;;;;;0.10;0.10;;;;;;;;;;5055650;28;20258;-76
2024/02/03 05:33:58;;;;;;;0.10;0.10;;;;;;;;;;5053136;28;20204;-76
2024/02/03 05:36:25;;;;;;;0.10;0.10;;;;;;;;;;5053329;28;20615;-75
2024/02/03 05:38:51;;;;;;;0.10;0.10;;;;;;;;;;5055482;28;20209;-76
2024/02/03 05:41:17;;;;;;;0.20;0.20;;;;;;;;;;5051667;28;20246;-76
2024/02/03 05:43:44;;;;;;;0.10;0.10;;;;;;;;;;5056759;28;20198;-75
2024/02/03 05:46:12;;;;;;;0.10;0.10;;;;;;;;;;5049467;28;20238;-76
2024/02/03 05:48:38;;;;;;;0.20;0.20;;;;;;;;;;5058814;28;20208;-76
2024/02/03 05:51:05;;;;;;;0.20;0.20;;;;;;;;;;5047855;28;20288;-76
2024/02/03 05:53:35;;;;;;;0.13;0.13;;;;;;;;;;5060173;28;20213;-76
2024/02/03 05:56:01;;;;;;;0.10;0.10;;;;;;;;;;5047173;28;20288;-76
2024/02/03 05:58:28;;;;;;;0.10;0.10;;;;;;;;;;5061212;28;20276;-76
2024/02/03 06:00:55;;;;;;;0.10;0.10;;;;;;;;;;5044322;28;20255;-76
2024/02/03 06:03:23;;;;;;;0.20;0.20;;;;;;;;;;5067258;28;20205;-76
2024/02/03 06:05:49;;;;;;;0.10;0.10;;;;;;;;;;5047598;28;20254;-76
2024/02/03 06:08:15;;;;;;;0.10;0.10;;;;;;;;;;5068278;28;20261;-76
2024/02/03 06:10:51;;;;;;;0.10;0.10;;;;;;;;;;5045326;28;20243;-76
2024/02/03 06:13:20;;;;;;;0.10;0.10;;;;;;;;;;5067919;28;20208;-76
2024/02/03 06:15:47;;;;;;;0.10;0.10;;;;;;;;;;5047240;28;20247;-75
2024/02/03 06:18:13;;;;;;;0.13;0.13;;;;;;;;;;5068657;28;20227;-75
2024/02/03 06:20:41;;;;;;;0.10;0.10;;;;;;;;;;5044741;28;20239;-75
2024/02/03 06:23:07;;;;;;;0.10;0.10;;;;;;;;;;5070411;28;20275;-75
2024/02/03 06:25:34;;;;;;;0.10;0.10;;;;;;;;;;5043194;28;20246;-75
2024/02/03 06:28:00;;;;;;;0.10;0.10;;;;;;;;;;5072110;28;20258;-75
2024/02/03 06:30:27;;;;;;;0.10;0.10;;;;;;;;;;5041094;28;20281;-75
2024/02/03 06:32:53;;;;;;;0.10;0.10;;;;;;;;;;5074049;28;20395;-76
2024/02/03 06:35:19;;;;;;;0.10;0.10;;;;;;;;;;5039173;28;20205;-75
2024/02/03 06:37:47;;;;;;;0.10;0.10;;;;;;;;;;5075910;28;20438;-75
2024/02/03 06:40:13;;;;;;;0.10;0.10;;;;;;;;;;5037457;28;20206;-74
2024/02/03 06:42:40;;;;;;;0.10;0.10;;;;;;;;;;5077498;28;20221;-75
2024/02/03 06:45:07;;;;;;;0.10;0.10;;;;;;;;;;5046776;28;20232;-75
2024/02/03 06:47:33;;;;;;;0.10;0.10;;;;;;;;;;5054936;28;20224;-75
2024/02/03 06:50:00;;;;;;;0.10;0.10;;;;;;;;;;5066284;28;20206;-75
2024/02/03 06:52:27;;;;;;;0.10;0.10;;;;;;;;;;5071392;28;20240;-75
2024/02/03 06:54:54;;;;;;;0.17;0.17;;;;;;;;;;5066530;28;20425;-74
2024/02/03 06:57:21;;;;;;;0.10;0.10;;;;;;;;;;5071327;28;20449;-75
2024/02/03 06:59:47;;;;;;;0.10;0.10;;;;;;;;;;5066083;28;20322;-75
2024/02/03 07:02:13;;;;;;;0.30;0.30;;;;;;;;;;5071237;28;20501;-75
2024/02/03 07:04:40;;;;;;;0.10;0.10;;;;;;;;;;5066478;28;20452;-75
2024/02/03 07:07:06;;;;;;;0.10;0.10;;;;;;;;;;5070577;28;20243;-75
2024/02/03 07:09:32;;;;;;;0.10;0.10;;;;;;;;;;5066537;28;20212;-75
2024/02/03 07:12:01;;;;;;;0.10;0.10;;;;;;;;;;5069691;28;20302;-75
2024/02/03 07:14:27;;;;;;;0.10;0.10;;;;;;;;;;5067249;28;20209;-75
2024/02/03 07:16:54;;;;;;;0.10;0.10;;;;;;;;;;5068948;28;20242;-75
2024/02/03 07:19:20;;;;;;;0.10;0.10;;;;;;;;;;5068061;28;20234;-75
2024/02/03 07:21:46;;;;;;;0.10;0.10;;;;;;;;;;5067850;28;20236;-74
2024/02/03 07:24:13;;;;;;;0.10;0.10;;;;;;;;;;5068876;28;20204;-75
2024/02/03 07:26:39;;;;;;;0.13;0.13;;;;;;;;;;5066892;28;20501;-75
2024/02/03 07:29:07;;;;;;;0.10;0.10;;;;;;;;;;5069726;28;20244;-75
2024/02/03 07:31:33;;;;;;;0.10;0.10;;;;;;;;;;5065938;28;20239;-75
2024/02/03 07:34:00;;;;;;;0.10;0.10;;;;;;;;;;5070245;28;20212;-75
2024/02/03 07:36:27;;;;;;;0.10;0.10;;;;;;;;;;5065272;28;20245;-75
2024/02/03 07:38:54;;;;;;;0.10;0.10;;;;;;;;;;5070558;28;20203;-75
2024/02/03 07:41:21;;;;;;;0.10;0.10;;;;;;;;;;5064182;28;20354;-75
2024/02/03 07:43:47;;;;;;;0.10;0.10;;;;;;;;;;5071625;28;20204;-75
2024/02/03 07:46:15;;;;;;;0.10;0.10;;;;;;;;;;5063218;28;20308;-75
2024/02/03 07:48:41;;;;;;;0.10;0.10;;;;;;;;;;5071837;28;20257;-75
2024/02/03 07:51:08;;;;;;;0.10;0.10;;;;;;;;;;5062095;28;20263;-74
2024/02/03 07:53:34;;;;;;;0.10;0.10;;;;;;;;;;5073572;28;20205;-75
2024/02/03 07:56:00;;;;;;;0.10;0.10;;;;;;;;;;5061176;28;20469;-77
2024/02/03 07:58:27;;;;;;;0.10;0.10;;;;;;;;;;5074059;28;20211;-75
2024/02/03 08:00:53;;;;;;;0.10;0.10;;;;;;;;;;5060257;28;20264;-75
2024/02/03 08:03:21;;;;;;;0.10;0.10;;;;;;;;;;5074547;28;20204;-75
2024/02/03 08:05:47;;;;;;;0.10;0.10;;;;;;;;;;5059212;28;20246;-75
2024/02/03 08:08:14;;;;;;;0.10;0.10;;;;;;;;;;5075397;28;20228;-75
2024/02/03 08:10:40;;;;;;;0.10;0.10;;;;;;;;;;5058279;28;20358;-75
2024/02/03 08:13:05;;;;;;;0.10;0.10;;;;;;;;;;5076301;28;20204;-75
2024/02/03 08:15:32;;;;;;;0.10;0.10;;;;;;;;;;5057415;28;20434;-74
2024/02/03 08:17:58;;;;;;;0.10;0.10;;;;;;;;;;5077304;28;20276;-75
2024/02/03 08:20:26;;;;;;;0.13;0.13;;;;;;;;;;5056159;28;20403;-75
2024/02/03 08:22:52;;;;;;;0.10;0.10;;;;;;;;;;5077882;28;20275;-75
2024/02/03 08:25:19;;;;;;;0.10;0.10;;;;;;;;;;5055089;28;20204;-75
2024/02/03 08:27:45;;;;;;;0.10;0.10;;;;;;;;;;5078647;28;20229;-75
2024/02/03 08:30:13;;;;;;;0.10;0.10;;;;;;;;;;5054343;28;20280;-75
2024/02/03 08:32:40;;;;;;;0.10;0.10;;;;;;;;;;5079253;28;20504;-75
2024/02/03 08:35:06;;;;;;;0.10;0.10;;;;;;;;;;5064560;28;20313;-75
2024/02/03 08:37:34;;;;;;;0.10;0.10;;;;;;;;;;5032978;28;20204;-75
2024/02/03 08:40:01;;;;;;;0.10;0.10;;;;;;;;;;5044000;28;20264;-75
2024/02/03 08:42:27;;;;;;;0.20;0.20;;;;;;;;;;5066161;28;20247;-75
2024/02/03 08:44:53;;;;;;;0.10;0.10;;;;;;;;;;5044500;28;20564;-75
2024/02/03 08:47:20;;;;;;;0.10;0.10;;;;;;;;;;5065816;28;20266;-75
2024/02/03 08:49:52;;;;;;;0.10;0.10;;;;;;;;;;5044174;28;20232;-75
2024/02/03 08:52:19;;;;;;;0.10;0.10;;;;;;;;;;5065742;28;20270;-75
2024/02/03 08:54:47;;;;;;;0.10;0.10;;;;;;;;;;5044508;28;20209;-75
2024/02/03 08:57:13;;;;;;;0.10;0.10;;;;;;;;;;5065758;28;20244;-75
2024/02/03 08:59:39;;;;;;;0.10;0.10;;;;;;;;;;5044410;28;20237;-75
2024/02/03 09:02:06;;;;;;;0.10;0.10;;;;;;;;;;5064774;28;20493;-75
2024/02/03 09:04:32;;;;;;;0.10;0.10;;;;;;;;;;5045039;28;20208;-75
2024/02/03 09:06:58;;;;;;;0.10;0.10;;;;;;;;;;5062462;28;20240;-75
2024/02/03 09:09:25;;;;;;;0.10;0.10;;;;;;;;;;5046963;28;20577;-75
2024/02/03 09:11:53;;;;;;;0.10;0.10;;;;;;;;;;5060098;28;20492;-75
2024/02/03 09:14:19;;;;;;;0.10;0.10;;;;;;;;;;5049256;28;20253;-76
2024/02/03 09:16:46;;;;;;;0.10;0.10;;;;;;;;;;5059305;28;20344;-75
2024/02/03 09:19:12;;;;;;;0.10;0.10;;;;;;;;;;5049903;28;20235;-75
2024/02/03 09:21:38;;;;;;;0.10;0.10;;;;;;;;;;5056774;28;20287;-75
2024/02/03 09:24:05;;;;;;;0.10;0.10;;;;;;;;;;5052106;28;20276;-75
2024/02/03 09:26:32;;;;;;;0.10;0.10;;;;;;;;;;5055012;28;20307;-75
2024/02/03 09:28:59;;;;;;;0.10;0.10;;;;;;;;;;5053691;28;20561;-76
2024/02/03 09:31:26;;;;;;;0.10;0.10;;;;;;;;;;5053787;28;20248;-75
2024/02/03 09:33:52;;;;;;;0.10;0.10;;;;;;;;;;5055124;28;20237;-75
2024/02/03 09:36:18;;;;;;;0.10;0.10;;;;;;;;;;5050849;28;20241;-75
2024/02/03 09:38:45;;;;;;;0.10;0.10;;;;;;;;;;5057066;28;20201;-76
2024/02/03 09:41:11;;;;;;;0.10;0.10;;;;;;;;;;5049575;28;20446;-76
2024/02/03 09:43:38;;;;;;;0.10;0.10;;;;;;;;;;5059022;28;20454;-76
2024/02/03 09:46:06;;;;;;;0.10;0.10;;;;;;;;;;5047831;28;20305;-75
2024/02/03 09:48:32;;;;;;;0.10;0.10;;;;;;;;;;5060242;28;20296;-75
2024/02/03 09:50:59;;;;;;;0.10;0.10;;;;;;;;;;5046120;28;20246;-74
2024/02/03 09:53:25;;;;;;;0.10;0.10;;;;;;;;;;5062535;28;20214;-75
2024/02/03 09:55:52;;;;;;;0.10;0.10;;;;;;;;;;5044515;28;20304;-74
2024/02/03 09:58:18;;;;;;;0.10;0.10;;;;;;;;;;5063840;28;20226;-74
2024/02/03 10:00:45;;;;;;;0.10;0.10;;;;;;;;;;5042722;28;20238;-73
2024/02/03 10:03:21;;;;;;;0.10;0.10;;;;;;;;;;5065678;28;20207;-74
2024/02/03 10:05:50;;;;;;;0.10;0.10;;;;;;;;;;5043229;28;20250;-75
2024/02/03 10:08:16;;;;;;;0.10;0.10;;;;;;;;;;5064322;28;20263;-75
2024/02/03 10:10:43;;;;;;;0.10;0.10;;;;;;;;;;5042173;28;20242;-75
2024/02/03 10:13:11;;;;;;;0.10;0.10;;;;;;;;;;5065852;28;20275;-75
2024/02/03 10:15:40;;;;;;;0.10;0.10;;;;;;;;;;5040685;28;20250;-75
2024/02/03 10:18:08;;;;;;;0.10;0.10;;;;;;;;;;5066651;28;20252;-74
2024/02/03 10:20:36;;;;;;;0.10;0.10;;;;;;;;;;5039562;28;20241;-74
2024/02/03 10:23:02;;;;;;;0.10;0.10;;;;;;;;;;5068551;28;20217;-74
2024/02/03 10:25:31;;;;;;;0.10;0.10;;;;;;;;;;5038390;28;20301;-75
2024/02/03 10:28:03;;;;;;;0.10;0.10;;;;;;;;;;5069293;28;20234;-74
2024/02/03 10:30:30;;;;;;;0.10;0.10;;;;;;;;;;5038133;28;20248;-74
2024/02/03 10:32:58;;;;;;;0.10;0.10;;;;;;;;;;5069234;28;20212;-74
2024/02/03 10:35:24;;;;;;;0.10;0.10;;;;;;;;;;5036953;28;20235;-74
2024/02/03 10:37:52;;;;;;;0.10;0.10;;;;;;;;;;5070505;28;20252;-74
2024/02/03 10:40:19;;;;;;;0.10;0.10;;;;;;;;;;5035050;28;20208;-74
2024/02/03 10:42:46;;;;;;;0.10;0.10;;;;;;;;;;5072342;28;20212;-74
2024/02/03 10:45:14;;;;;;;0.10;0.10;;;;;;;;;;5033820;28;20495;-74
2024/02/03 10:47:43;;;;;;;0.10;0.10;;;;;;;;;;5073970;28;20424;-74
2024/02/03 10:50:14;;;;;;;0.10;0.10;;;;;;;;;;5042333;28;20279;-74
2024/02/03 10:52:42;;;;;;;0.10;0.10;;;;;;;;;;5077256;28;20218;-74
2024/02/03 10:55:10;;;;;;;0.10;0.10;;;;;;;;;;5046279;28;20211;-74
2024/02/03 10:57:37;;;;;;;0.10;0.10;;;;;;;;;;5055060;28;20201;-74
2024/02/03 11:00:06;;;;;;;0.10;0.10;;;;;;;;;;5066546;28;20211;-74
2024/02/03 11:02:33;;;;;;;0.10;0.10;;;;;;;;;;5054889;28;20285;-74
2024/02/03 11:04:59;;;;;;;0.10;0.10;;;;;;;;;;5066495;28;20279;-74
2024/02/03 11:07:26;;;;;;;0.10;0.10;;;;;;;;;;5054316;28;20314;-73
2024/02/03 11:09:54;;;;;;;0.10;0.10;;;;;;;;;;5066266;28;20503;-74
2024/02/03 11:12:21;;;;;;;0.10;0.10;;;;;;;;;;5054578;28;20263;-74
2024/02/03 11:14:48;;;;;;;0.10;0.10;;;;;;;;;;5066199;28;20205;-74
2024/02/03 11:17:14;;;;;;;0.20;0.20;;;;;;;;;;5054389;28;20249;-74
2024/02/03 11:19:42;;;;;;;0.10;0.10;;;;;;;;;;5066283;28;20202;-74
2024/02/03 11:22:09;;;;;;;0.10;0.10;;;;;;;;;;5054462;28;20451;-74
2024/02/03 11:24:36;;;;;;;0.10;0.10;;;;;;;;;;5066241;28;20214;-74
2024/02/03 11:27:03;;;;;;;0.20;0.20;;;;;;;;;;5054416;28;20241;-74
2024/02/03 11:29:32;;;;;;;0.10;0.10;;;;;;;;;;5066053;28;20224;-74
2024/02/03 11:31:59;;;;;;;0.10;0.10;;;;;;;;;;5054444;28;20262;-76
2024/02/03 11:34:27;;;;;;;0.10;0.10;;;;;;;;;;5065954;28;20273;-71
2024/02/03 11:36:53;;;;;;;0.10;0.10;;;;;;;;;;5054281;28;20240;-75
2024/02/03 11:39:26;;;;;;;0.10;0.10;;;;;;;;;;5065302;28;20207;-70
2024/02/03 11:41:53;;;;;;;0.10;0.10;;;;;;;;;;5054225;28;20241;-68
2024/02/03 11:44:20;;;;;;;0.10;0.10;;;;;;;;;;5065703;28;20295;-72
2024/02/03 11:46:48;;;;;;;0.10;0.10;;;;;;;;;;5054162;28;20265;-73
2024/02/03 11:49:14;;;;;;;0.10;0.10;;;;;;;;;;5065297;28;20234;-72
2024/02/03 11:51:41;;;;;;;0.10;0.10;;;;;;;;;;5054138;28;20305;-73
2024/02/03 11:54:08;;;;;;;0.10;0.10;;;;;;;;;;5065219;28;20204;-74
2024/02/03 11:56:34;;;;;;;0.10;0.10;;;;;;;;;;5054034;28;20250;-79
2024/02/03 11:59:01;;;;;;;0.10;0.10;;;;;;;;;;5064855;28;20200;-75
2024/02/03 12:01:30;;;;;;;0.10;0.10;;;;;;;;;;5053876;28;20239;-76
2024/02/03 12:03:57;;;;;;;0.10;0.10;;;;;;;;;;5065083;28;20207;-76
2024/02/03 12:06:24;;;;;;;0.10;0.10;;;;;;;;;;5053846;28;20242;-76
2024/02/03 12:08:50;;;;;;;0.10;0.10;;;;;;;;;;5064883;28;20298;-77
2024/02/03 12:11:17;;;;;;;0.10;0.10;;;;;;;;;;5054161;28;20663;-76
2024/02/03 12:13:45;;;;;;;0.10;0.10;;;;;;;;;;5064485;28;20226;-76
2024/02/03 12:16:11;;;;;;;0.10;0.10;;;;;;;;;;5054238;28;20302;-76
2024/02/03 12:18:38;;;;;;;0.10;0.10;;;;;;;;;;5064660;28;20228;-76
2024/02/03 12:21:07;;;;;;;0.10;0.10;;;;;;;;;;5054169;28;20417;-77
2024/02/03 12:23:33;;;;;;;0.10;0.10;;;;;;;;;;5064350;28;20219;-76
2024/02/03 12:26:00;;;;;;;0.10;0.10;;;;;;;;;;5053841;28;20258;-77
2024/02/03 12:28:26;;;;;;;0.10;0.10;;;;;;;;;;5064212;28;20383;-76
2024/02/03 12:30:56;;;;;;;0.10;0.10;;;;;;;;;;5053842;28;20263;-77
2024/02/03 12:33:22;;;;;;;0.10;0.10;;;;;;;;;;5064154;28;20234;-77
2024/02/03 12:35:48;;;;;;;0.10;0.10;;;;;;;;;;5053793;28;20265;-76
2024/02/03 12:38:16;;;;;;;0.10;0.10;;;;;;;;;;5064088;28;20356;-77
2024/02/03 12:40:43;;;;;;;0.10;0.10;;;;;;;;;;5053686;28;20264;-76
2024/02/03 12:43:09;;;;;;;0.10;0.10;;;;;;;;;;5063622;28;20249;-77
2024/02/03 12:45:36;;;;;;;0.10;0.10;;;;;;;;;;5053725;28;20242;-77
2024/02/03 12:48:02;;;;;;;0.10;0.10;;;;;;;;;;5063281;28;20205;-77
2024/02/03 12:50:30;;;;;;;0.10;0.10;;;;;;;;;;5054181;28;20257;-77
2024/02/03 12:52:58;;;;;;;0.10;0.10;;;;;;;;;;5063087;28;20245;-77
2024/02/03 12:55:26;;;;;;;0.10;0.10;;;;;;;;;;5053668;28;20204;-75
2024/02/03 12:57:53;;;;;;;0.10;0.10;;;;;;;;;;5063119;28;20207;-77
2024/02/03 13:00:20;;;;;;;0.10;0.10;;;;;;;;;;5053460;28;20198;-77
2024/02/03 13:02:49;;;;;;;0.10;0.10;;;;;;;;;;5062935;28;20207;-77
2024/02/03 13:05:15;;;;;;;0.10;0.10;;;;;;;;;;5053662;28;20221;-77
2024/02/03 13:07:41;;;;;;;0.10;0.10;;;;;;;;;;5062700;28;20556;-77
2024/02/03 13:10:08;;;;;;;0.10;0.10;;;;;;;;;;5063734;28;20258;-77
2024/02/03 13:12:36;;;;;;;0.10;0.10;;;;;;;;;;5052146;28;20233;-77
2024/02/03 13:15:02;;;;;;;0.10;0.10;;;;;;;;;;5063861;28;20201;-78
2024/02/03 13:17:28;;;;;;;0.10;0.10;;;;;;;;;;5052405;28;20502;-78
2024/02/03 13:19:55;;;;;;;0.10;0.10;;;;;;;;;;5063834;28;20235;-78
2024/02/03 13:22:22;;;;;;;0.10;0.10;;;;;;;;;;5052282;28;20341;-78
2024/02/03 13:24:48;;;;;;;0.10;0.10;;;;;;;;;;5063956;28;20522;-77
2024/02/03 13:27:14;;;;;;;0.10;0.10;;;;;;;;;;5052258;28;20242;-76
2024/02/03 13:29:42;;;;;;;0.10;0.10;;;;;;;;;;5063871;28;20298;-74
2024/02/03 13:32:09;;;;;;;0.10;0.10;;;;;;;;;;5052045;28;20245;-77
2024/02/03 13:34:35;;;;;;;0.10;0.10;;;;;;;;;;5063772;28;20206;-77
2024/02/03 13:37:01;;;;;;;0.10;0.10;;;;;;;;;;5052135;28;20307;-75
2024/02/03 13:39:28;;;;;;;0.10;0.10;;;;;;;;;;5063696;28;20399;-77
2024/02/03 13:41:54;;;;;;;0.10;0.10;;;;;;;;;;5052061;28;20247;-75
2024/02/03 13:44:21;;;;;;;0.10;0.10;;;;;;;;;;5063753;28;20206;-73
2024/02/03 13:46:49;;;;;;;0.10;0.10;;;;;;;;;;5052143;28;20243;-73
2024/02/03 13:49:15;;;;;;;0.10;0.10;;;;;;;;;;5062794;28;20277;-74
2024/02/03 13:51:44;;;;;;;0.10;0.10;;;;;;;;;;5051964;28;20250;-74
2024/02/03 13:54:10;;;;;;;0.10;0.10;;;;;;;;;;5062793;28;20557;-76
2024/02/03 13:56:37;;;;;;;0.10;0.10;;;;;;;;;;5052175;28;20238;-74
2024/02/03 13:59:03;;;;;;;0.10;0.10;;;;;;;;;;5063223;28;20200;-74
2024/02/03 14:01:30;;;;;;;0.10;0.10;;;;;;;;;;5051988;28;20391;-74
2024/02/03 14:03:57;;;;;;;0.10;0.10;;;;;;;;;;5063054;28;20222;-75
2024/02/03 14:06:24;;;;;;;0.10;0.10;;;;;;;;;;5051864;28;20244;-74
2024/02/03 14:08:50;;;;;;;0.10;0.10;;;;;;;;;;5062558;28;20597;-74
2024/02/03 14:11:16;;;;;;;0.10;0.10;;;;;;;;;;5052152;28;20309;-75
2024/02/03 14:13:43;;;;;;;0.10;0.10;;;;;;;;;;5062875;28;20208;-74
2024/02/03 14:16:10;;;;;;;0.10;0.10;;;;;;;;;;5052142;28;20243;-74
2024/02/03 14:18:37;;;;;;;0.10;0.10;;;;;;;;;;5062823;28;20371;-74
2024/02/03 14:21:05;;;;;;;0.10;0.10;;;;;;;;;;5052386;28;20453;-74
2024/02/03 14:23:33;;;;;;;0.10;0.10;;;;;;;;;;5064437;28;20485;-73
2024/02/03 14:26:00;;;;;;;0.10;0.10;;;;;;;;;;5056223;28;20263;-74
2024/02/03 14:28:26;;;;;;;0.10;0.10;;;;;;;;;;5066419;28;20206;-74
2024/02/03 14:30:53;;;;;;;0.10;0.10;;;;;;;;;;5056312;28;20261;-74
2024/02/03 14:33:21;;;;;;;0.10;0.10;;;;;;;;;;5065841;28;20272;-75
2024/02/03 14:35:47;;;;;;;0.10;0.10;;;;;;;;;;5056235;28;20240;-74
2024/02/03 14:38:15;;;;;;;0.10;0.10;;;;;;;;;;5066107;28;20267;-74
2024/02/03 14:40:41;;;;;;;0.10;0.10;;;;;;;;;;5056056;28;20249;-74